Aventura, Florida
Current Conditions -  °F | °C
As of 3:53 PM on Tuesday 27 Jan 2015 (Local Time) from KHWO Reporting Station
Clear Clear  
Wind Chill: 68°   Ceiling: Unl
Heat Index: 68°   Visibility: 10mi
Dew Point: 34°   Wind: 15mph
Humidity: 28%   Direction: 260°W
Pressure: 30"   Gusts: NA
Location:  25.9536°N, 80.1568°W
Report Text: KHWO 272053Z AUTO 26013KT 10SM CLR 20/01 A3000 RMK AO2 SLP157 T02000011 56017
Loading
Personal Weather Stations






























Interactive Weather Map New forecast layout! Learn more

10-Day Weather Forecast

Advertisements
Track Severe Weather on mobile